Time;durP1;ratioP1;P1;durP2;ratioP2;P2;SDS_P1;SDS_P2;PMS_P1;PMS_P2;Temp;Humidity;BMP_temperature;BMP_pressure;BME280_temperature;BME280_humidity;BME280_pressure;Samples;Min_cycle;Max_cycle;Signal;HPM_P1;HPM_P2
2022/06/18 00:00:00;;;;;;;;;;;;;;;24.74;50.03;101821.19;6211442;23;19911;-68
2022/06/18 00:02:28;;;;;;;;;;;;;;;24.66;50.18;101826.34;6238180;23;20317;-67
2022/06/18 00:04:53;;;;;;;;;;;;;;;24.60;50.42;101838.44;6236044;23;19908;-69
2022/06/18 00:07:19;;;;;;;;;;;;;;;24.60;50.54;101837.59;6238243;23;20245;-67
2022/06/18 00:09:48;;;;;;;;;;;;;;;24.60;50.82;101837.59;6225496;23;19912;-70
2022/06/18 00:15:00;;;;;;;;;;;;;;;24.43;51.46;101831.69;6236862;23;19907;-69
2022/06/18 00:17:25;;;;;;;;;;;;;;;24.41;51.59;101833.63;6236451;22;19908;-68
2022/06/18 00:19:50;;;;;;;;;;;;;;;24.42;51.65;101832.66;6237174;23;20340;-67
2022/06/18 00:22:21;;;;;;;;;;;;;;;24.37;52.00;101834.84;6236894;23;19907;-71
2022/06/18 00:24:46;;;;;;;;;;;;;;;24.31;52.26;101832.63;6211013;23;19903;-71
2022/06/18 00:27:12;;;;;;;;;;;;;;;24.28;52.23;101832.88;6236079;23;19946;-69
2022/06/18 00:29:38;;;;;;;;;;;;;;;24.25;52.46;101839.34;6238010;22;19908;-68
2022/06/18 00:32:03;;;;;;;;;;;;;;;24.21;52.99;101835.19;6237497;22;19911;-68
2022/06/18 00:34:28;;;;;;;;;;;;;;;24.10;53.36;101835.97;6236686;22;20063;-70
2022/06/18 00:36:53;;;;;;;;;;;;;;;24.08;53.50;101841.47;6238075;23;19955;-70
2022/06/18 00:39:19;;;;;;;;;;;;;;;24.07;53.46;101830.81;6236471;23;19908;-70
2022/06/18 00:41:45;;;;;;;;;;;;;;;24.06;53.69;101829.09;6237464;23;19907;-69
2022/06/18 00:44:28;;;;;;;;;;;;;;;23.97;54.13;101836.06;6236247;23;19918;-70
2022/06/18 00:47:26;;;;;;;;;;;;;;;23.95;54.37;101824.53;6235536;23;19914;-69
2022/06/18 00:50:09;;;;;;;;;;;;;;;23.90;54.70;101826.72;6185915;22;19911;-69
2022/06/18 00:52:54;;;;;;;;;;;;;;;23.80;54.87;101829.22;6236171;23;20703;-72
2022/06/18 00:55:28;;;;;;;;;;;;;;;23.73;55.22;101828.84;6235725;23;19911;-71
2022/06/18 00:58:02;;;;;;;;;;;;;;;23.69;55.43;101825.53;6236856;22;19904;-71
2022/06/18 01:00:36;;;;;;;;;;;;;;;23.66;55.83;101825.75;6237005;23;20321;-69
2022/06/18 01:03:02;;;;;;;;;;;;;;;23.59;55.81;101828.06;6236569;22;20312;-70
2022/06/18 01:05:32;;;;;;;;;;;;;;;23.53;56.46;101822.25;6236510;23;19914;-69
2022/06/18 01:08:17;;;;;;;;;;;;;;;23.51;56.47;101824.22;6237846;22;19904;-72
2022/06/18 01:10:45;;;;;;;;;;;;;;;23.46;56.77;101817.34;6235044;23;19915;-67
2022/06/18 01:13:12;;;;;;;;;;;;;;;23.46;56.95;101821.84;6235856;23;19911;-71
2022/06/18 01:15:37;;;;;;;;;;;;;;;23.43;57.05;101816.69;6236083;23;19904;-70
2022/06/18 01:18:03;;;;;;;;;;;;;;;23.40;57.36;101819.63;6235509;22;19985;-69
2022/06/18 01:20:28;;;;;;;;;;;;;;;23.38;57.36;101821.56;6238210;22;20313;-71
2022/06/18 01:22:55;;;;;;;;;;;;;;;23.28;57.59;101818.66;6236057;23;19914;-71
2022/06/18 01:25:21;;;;;;;;;;;;;;;23.29;57.78;101815.84;6237205;22;19939;-71
2022/06/18 01:27:46;;;;;;;;;;;;;;;23.21;58.11;101810.19;6237425;22;19911;-70
2022/06/18 01:30:14;;;;;;;;;;;;;;;23.25;58.33;101809.00;6237451;23;20284;-73
2022/06/18 01:32:39;;;;;;;;;;;;;;;23.16;58.45;101807.84;6235660;22;19935;-68
2022/06/18 01:35:05;;;;;;;;;;;;;;;23.11;58.96;101801.91;6235886;22;19915;-71
2022/06/18 01:37:30;;;;;;;;;;;;;;;23.05;59.03;101810.41;6236821;22;19914;-72
2022/06/18 01:39:55;;;;;;;;;;;;;;;22.96;59.30;101802.06;6235742;23;19911;-72
2022/06/18 01:42:26;;;;;;;;;;;;;;;22.94;59.55;101804.00;6237255;23;19912;-70
2022/06/18 01:44:54;;;;;;;;;;;;;;;22.90;59.80;101813.25;6235136;23;19990;-69
2022/06/18 01:47:21;;;;;;;;;;;;;;;22.76;60.25;101802.63;6235436;23;19931;-70
2022/06/18 01:49:51;;;;;;;;;;;;;;;22.72;60.31;101802.84;6233725;23;19908;-70
2022/06/18 01:52:18;;;;;;;;;;;;;;;22.70;60.49;101799.41;6235397;23;19907;-71
2022/06/18 01:54:50;;;;;;;;;;;;;;;22.65;61.11;101806.06;6237143;22;20328;-66
2022/06/18 01:57:17;;;;;;;;;;;;;;;22.55;61.20;101812.03;6235187;23;19953;-70
2022/06/18 01:59:44;;;;;;;;;;;;;;;22.51;61.51;101805.19;6235232;23;19903;-70
2022/06/18 02:02:09;;;;;;;;;;;;;;;22.43;61.86;101800.34;6209261;23;19919;-69
2022/06/18 02:04:35;;;;;;;;;;;;;;;22.42;61.91;101809.38;6236180;23;19955;-69
2022/06/18 02:07:00;;;;;;;;;;;;;;;22.40;62.20;101802.38;6235626;23;19915;-70
2022/06/18 02:09:25;;;;;;;;;;;;;;;22.38;62.24;101799.81;6236936;23;20386;-69
2022/06/18 02:11:50;;;;;;;;;;;;;;;22.32;62.41;101805.59;6236574;23;20026;-69
2022/06/18 02:14:15;;;;;;;;;;;;;;;22.18;62.82;101809.22;6236859;23;19986;-69
2022/06/18 02:16:42;;;;;;;;;;;;;;;22.21;62.83;101811.69;6235942;23;19908;-71
2022/06/18 02:19:07;;;;;;;;;;;;;;;22.17;62.96;101813.75;6209004;23;20328;-71
2022/06/18 02:21:35;;;;;;;;;;;;;;;22.19;63.15;101817.16;6210541;23;19915;-73
2022/06/18 02:24:00;;;;;;;;;;;;;;;22.21;62.94;101820.63;6209203;23;20316;-72
2022/06/18 02:26:25;;;;;;;;;;;;;;;22.20;63.07;101818.03;6236766;23;19965;-71
2022/06/18 02:28:50;;;;;;;;;;;;;;;22.18;63.40;101812.78;6235601;23;19911;-72
2022/06/18 02:31:22;;;;;;;;;;;;;;;22.11;63.68;101821.34;6209730;23;19911;-72
2022/06/18 02:33:48;;;;;;;;;;;;;;;22.04;63.69;101826.28;6209328;23;20302;-73
2022/06/18 02:36:16;;;;;;;;;;;;;;;21.95;64.30;101823.22;6209645;23;19918;-73
2022/06/18 02:38:42;;;;;;;;;;;;;;;21.90;64.78;101822.69;6235210;23;19986;-72
2022/06/18 02:41:08;;;;;;;;;;;;;;;21.84;64.58;101823.09;6235869;23;19995;-71
2022/06/18 02:43:33;;;;;;;;;;;;;;;21.78;64.61;101823.50;6208490;23;19915;-70
2022/06/18 02:45:59;;;;;;;;;;;;;;;21.69;65.04;101825.81;6208848;23;19907;-71
2022/06/18 02:48:25;;;;;;;;;;;;;;;21.63;64.91;101822.66;6235474;23;20018;-71
2022/06/18 02:50:50;;;;;;;;;;;;;;;21.64;65.05;101827.09;6210684;23;19914;-70
2022/06/18 02:53:16;;;;;;;;;;;;;;;21.69;65.04;101830.31;6210905;23;20476;-71
2022/06/18 02:55:45;;;;;;;;;;;;;;;21.61;65.03;101824.59;6238629;23;19914;-71
2022/06/18 02:58:12;;;;;;;;;;;;;;;21.53;65.79;101820.59;6211742;23;19907;-70
2022/06/18 03:00:38;;;;;;;;;;;;;;;21.48;65.83;101829.88;6238308;23;19978;-69
2022/06/18 03:03:05;;;;;;;;;;;;;;;21.36;66.42;101824.38;6237803;23;19919;-69
2022/06/18 03:05:30;;;;;;;;;;;;;;;21.26;66.42;101826.78;6211670;23;20097;-71
2022/06/18 03:07:55;;;;;;;;;;;;;;;21.23;67.09;101829.66;6238516;23;20345;-71
2022/06/18 03:13:04;;;;;;;;;;;;;;;21.11;67.21;101820.59;6237610;23;19969;-73
2022/06/18 03:15:32;;;;;;;;;;;;;;;21.03;67.34;101829.09;6238884;23;20312;-72
2022/06/18 03:17:58;;;;;;;;;;;;;;;21.00;67.98;101826.63;6236852;23;20243;-72
2022/06/18 03:20:25;;;;;;;;;;;;;;;20.94;68.21;101821.63;6211956;23;19911;-73
2022/06/18 03:22:50;;;;;;;;;;;;;;;20.88;68.20;101830.88;6238140;23;19912;-67
2022/06/18 03:25:15;;;;;;;;;;;;;;;20.82;68.36;101831.25;6238740;23;19981;-71
2022/06/18 03:27:40;;;;;;;;;;;;;;;20.76;68.60;101829.84;6238378;23;20316;-71
2022/06/18 03:30:06;;;;;;;;;;;;;;;20.73;69.21;101838.06;6237542;23;19990;-71
2022/06/18 03:32:31;;;;;;;;;;;;;;;20.69;68.94;101829.38;6237407;23;19935;-72
2022/06/18 03:34:56;;;;;;;;;;;;;;;20.62;69.46;101828.00;6238364;23;20375;-72
2022/06/18 03:37:22;;;;;;;;;;;;;;;20.54;69.49;101823.13;6237812;23;19986;-75
2022/06/18 03:39:47;;;;;;;;;;;;;;;20.53;69.83;101831.25;6237652;23;19931;-73
2022/06/18 03:42:12;;;;;;;;;;;;;;;20.35;70.38;101834.09;6237991;23;19911;-73
2022/06/18 03:44:38;;;;;;;;;;;;;;;20.37;70.74;101832.16;6210053;23;19907;-75
2022/06/18 03:47:03;;;;;;;;;;;;;;;20.31;71.00;101837.88;6234105;23;20348;-74
2022/06/18 03:49:29;;;;;;;;;;;;;;;20.25;71.28;101843.59;6237755;23;20271;-75
2022/06/18 03:51:55;;;;;;;;;;;;;;;20.27;71.62;101841.69;6237404;23;20042;-76
2022/06/18 03:54:21;;;;;;;;;;;;;;;20.32;71.63;101842.31;6236625;23;20744;-77
2022/06/18 03:56:46;;;;;;;;;;;;;;;20.36;71.68;101841.16;6237922;23;19914;-74
2022/06/18 03:59:12;;;;;;;;;;;;;;;20.37;71.06;101842.88;6237062;23;19907;-72
2022/06/18 04:01:40;;;;;;;;;;;;;;;20.44;71.39;101844.22;6237228;23;19935;-76
2022/06/18 04:04:06;;;;;;;;;;;;;;;20.40;71.55;101845.38;6209392;23;19914;-74
2022/06/18 04:06:31;;;;;;;;;;;;;;;20.44;71.50;101840.69;6211004;23;19908;-68
2022/06/18 04:08:56;;;;;;;;;;;;;;;20.48;71.03;101846.72;6237044;23;20495;-74
2022/06/18 04:11:21;;;;;;;;;;;;;;;20.44;71.40;101844.22;6237229;23;20321;-74
2022/06/18 04:13:47;;;;;;;;;;;;;;;20.44;71.49;101848.72;6237689;23;19916;-72
2022/06/18 04:16:12;;;;;;;;;;;;;;;20.50;71.36;101842.16;6236523;23;19931;-74
2022/06/18 04:18:37;;;;;;;;;;;;;;;20.56;71.29;101839.94;6236761;23;19977;-75
2022/06/18 04:21:03;;;;;;;;;;;;;;;20.52;71.04;101840.22;6236151;23;20248;-72
2022/06/18 04:23:28;;;;;;;;;;;;;;;20.56;71.29;101842.63;6211733;23;19908;-74
2022/06/18 04:25:54;;;;;;;;;;;;;;;20.62;70.94;101836.03;6237382;23;20273;-75
2022/06/18 04:28:19;;;;;;;;;;;;;;;20.75;70.73;101837.97;6237309;23;20350;-75
2022/06/18 04:30:44;;;;;;;;;;;;;;;20.70;70.44;101843.59;6236592;23;20317;-72
2022/06/18 04:33:10;;;;;;;;;;;;;;;20.75;70.86;101835.28;6236417;23;20233;-73
2022/06/18 04:35:36;;;;;;;;;;;;;;;20.65;70.86;101835.84;6237526;23;20339;-72
2022/06/18 04:38:01;;;;;;;;;;;;;;;20.66;71.01;101837.59;6236695;23;19907;-67
2022/06/18 04:40:31;;;;;;;;;;;;;;;20.65;71.01;101835.00;6237895;23;19908;-75
2022/06/18 04:42:57;;;;;;;;;;;;;;;20.68;71.17;101838.31;6236608;23;19907;-76
2022/06/18 04:45:22;;;;;;;;;;;;;;;20.69;71.31;101837.41;6236601;23;19915;-75
2022/06/18 04:47:47;;;;;;;;;;;;;;;20.83;70.81;101833.00;6209832;23;19969;-75
2022/06/18 04:50:17;;;;;;;;;;;;;;;20.87;70.75;101833.66;6236445;23;19908;-72
2022/06/18 04:52:43;;;;;;;;;;;;;;;20.86;70.33;101838.16;6209348;23;19913;-76
2022/06/18 04:55:08;;;;;;;;;;;;;;;21.02;70.08;101829.19;6237167;23;19943;-75
2022/06/18 04:57:33;;;;;;;;;;;;;;;20.95;70.54;101826.91;6237583;23;19914;-74
2022/06/18 04:59:58;;;;;;;;;;;;;;;21.05;70.13;101831.69;6237013;23;20299;-75
2022/06/18 05:02:25;;;;;;;;;;;;;;;20.95;70.10;101829.56;6235016;23;20277;-74
2022/06/18 05:04:50;;;;;;;;;;;;;;;21.03;70.24;101825.56;6235282;23;20309;-72
2022/06/18 05:07:16;;;;;;;;;;;;;;;21.04;69.78;101832.66;6236287;23;19923;-75
2022/06/18 05:09:41;;;;;;;;;;;;;;;21.09;69.92;101830.53;6236925;23;20324;-75
2022/06/18 05:12:06;;;;;;;;;;;;;;;21.28;69.18;101827.53;6236844;23;19919;-73
2022/06/18 05:14:32;;;;;;;;;;;;;;;21.28;69.24;101818.66;6236591;23;19908;-73
2022/06/18 05:16:57;;;;;;;;;;;;;;;21.36;69.05;101829.72;6237294;23;19907;-73
2022/06/18 05:19:24;;;;;;;;;;;;;;;21.44;69.12;101831.91;6234132;23;19910;-73
2022/06/18 05:21:49;;;;;;;;;;;;;;;21.48;68.82;101833.44;6236259;23;19907;-76
2022/06/18 05:24:15;;;;;;;;;;;;;;;21.42;69.53;101840.06;6236999;23;20236;-75
2022/06/18 05:26:41;;;;;;;;;;;;;;;21.53;69.00;101836.69;6236877;23;19939;-73
2022/06/18 05:29:07;;;;;;;;;;;;;;;21.54;68.90;101837.53;6209955;23;19919;-75
2022/06/18 05:31:33;;;;;;;;;;;;;;;21.61;69.25;101836.16;6209211;23;19908;-74
2022/06/18 05:33:58;;;;;;;;;;;;;;;21.58;68.93;101837.25;6235301;23;19962;-75
2022/06/18 05:36:23;;;;;;;;;;;;;;;21.64;68.81;101838.66;6236406;23;19961;-79
2022/06/18 05:38:49;;;;;;;;;;;;;;;21.68;68.99;101834.84;6236929;23;19969;-77
2022/06/18 05:41:14;;;;;;;;;;;;;;;21.75;68.72;101832.63;6236603;23;19907;-76
2022/06/18 05:43:40;;;;;;;;;;;;;;;21.73;68.88;101834.50;6237490;23;19907;-77
2022/06/18 05:46:07;;;;;;;;;;;;;;;21.75;68.27;101835.31;6209494;23;20317;-77
2022/06/18 05:48:32;;;;;;;;;;;;;;;21.81;68.36;101829.53;6208958;23;20002;-76
2022/06/18 05:50:57;;;;;;;;;;;;;;;21.91;68.11;101837.81;6236500;23;20332;-77
2022/06/18 05:53:23;;;;;;;;;;;;;;;21.76;68.61;101842.38;6235069;23;19956;-76
2022/06/18 05:55:48;;;;;;;;;;;;;;;21.91;68.59;101839.66;6236705;23;19942;-76
2022/06/18 05:58:13;;;;;;;;;;;;;;;22.02;68.53;101833.56;6236454;23;19931;-76
2022/06/18 06:00:38;;;;;;;;;;;;;;;22.05;68.34;101842.28;6235758;23;19907;-74
2022/06/18 06:03:04;;;;;;;;;;;;;;;21.96;67.80;101841.06;6235206;23;19914;-78
2022/06/18 06:05:29;;;;;;;;;;;;;;;22.06;67.67;101840.44;6235759;23;19908;-76
2022/06/18 06:07:55;;;;;;;;;;;;;;;22.10;67.79;101841.97;6236467;23;20270;-76
2022/06/18 06:13:12;;;;;;;;;;;;;;;22.17;67.30;101840.59;6235625;23;19938;-67
2022/06/18 06:15:38;;;;;;;;;;;;;;;22.24;67.21;101845.53;6236501;23;20310;-75
2022/06/18 06:18:03;;;;;;;;;;;;;;;22.24;67.51;101851.75;6234567;23;19911;-68
2022/06/18 06:20:31;;;;;;;;;;;;;;;22.37;67.10;101861.66;6236724;23;19911;-70
2022/06/18 06:22:57;;;;;;;;;;;;;;;22.42;66.88;101855.00;6210211;23;19907;-68
2022/06/18 06:25:22;;;;;;;;;;;;;;;22.47;66.76;101863.63;6236231;23;19900;-70
2022/06/18 06:27:47;;;;;;;;;;;;;;;22.30;67.52;101856.72;6235743;23;19961;-69
2022/06/18 06:30:13;;;;;;;;;;;;;;;22.49;66.83;101862.66;6236520;23;19914;-70
2022/06/18 06:32:38;;;;;;;;;;;;;;;22.36;67.05;101862.63;6234810;23;19907;-69
2022/06/18 06:35:04;;;;;;;;;;;;;;;22.53;67.18;101858.78;6236238;23;19930;-70
2022/06/18 06:37:29;;;;;;;;;;;;;;;22.50;67.27;101862.53;6237259;23;19908;-70
2022/06/18 06:39:54;;;;;;;;;;;;;;;22.63;66.94;101867.09;6235646;23;20314;-69
2022/06/18 06:42:20;;;;;;;;;;;;;;;22.64;66.62;101874.19;6235115;23;20328;-68
2022/06/18 06:44:45;;;;;;;;;;;;;;;22.39;68.06;101868.63;6235063;23;20309;-69
2022/06/18 06:47:10;;;;;;;;;;;;;;;22.64;67.11;101869.69;6235550;23;20387;-68
2022/06/18 06:49:35;;;;;;;;;;;;;;;22.76;66.68;101869.78;6235235;23;19907;-66
2022/06/18 06:52:00;;;;;;;;;;;;;;;22.92;66.32;101877.63;6236482;23;19908;-68
2022/06/18 06:54:26;;;;;;;;;;;;;;;22.96;65.95;101873.75;6235754;23;19908;-69
2022/06/18 06:59:35;;;;;;;;;;;;;;;23.12;64.34;101869.97;6235676;23;19914;-68
2022/06/18 07:02:02;;;;;;;;;;;;;;;22.95;65.55;101872.03;6234377;23;19994;-69
2022/06/18 07:04:27;;;;;;;;;;;;;;;23.23;64.89;101884.38;6235375;23;19961;-67
2022/06/18 07:06:55;;;;;;;;;;;;;;;23.31;64.94;101878.44;6234168;23;20431;-69
2022/06/18 07:09:20;;;;;;;;;;;;;;;23.20;63.98;101884.59;6235441;23;19946;-69
2022/06/18 07:11:45;;;;;;;;;;;;;;;23.23;63.15;101886.19;6236083;23;20313;-69
2022/06/18 07:14:10;;;;;;;;;;;;;;;23.43;61.56;101886.63;6236410;23;19929;-71
2022/06/18 07:16:45;;;;;;;;;;;;;;;23.56;62.14;101887.44;6236234;23;19986;-70
2022/06/18 07:19:10;;;;;;;;;;;;;;;23.50;62.55;101881.66;6235465;23;20001;-68
2022/06/18 07:21:36;;;;;;;;;;;;;;;23.59;62.10;101889.91;6234324;23;20328;-66
2022/06/18 07:24:01;;;;;;;;;;;;;;;23.60;62.19;101888.09;6236075;23;19953;-67
2022/06/18 07:26:26;;;;;;;;;;;;;;;23.40;62.84;101882.34;6236312;23;19907;-67
2022/06/18 07:28:51;;;;;;;;;;;;;;;23.36;63.11;101891.56;6235871;23;19990;-68
2022/06/18 07:31:27;;;;;;;;;;;;;;;23.34;63.10;101893.50;6235146;23;19970;-67
2022/06/18 07:33:52;;;;;;;;;;;;;;;23.51;62.61;101891.44;6235549;23;19961;-67
2022/06/18 07:36:19;;;;;;;;;;;;;;;23.61;62.17;101889.81;6210509;23;19907;-67
2022/06/18 07:38:44;;;;;;;;;;;;;;;23.76;61.33;101890.50;6237790;23;19907;-66
2022/06/18 07:41:10;;;;;;;;;;;;;;;24.07;60.19;101884.66;6235975;23;19919;-67
2022/06/18 07:43:38;;;;;;;;;;;;;;;24.01;60.64;101874.34;6185747;23;19900;-66
2022/06/18 07:46:03;;;;;;;;;;;;;;;24.03;60.48;101872.41;6237227;23;19918;-68
2022/06/18 07:48:28;;;;;;;;;;;;;;;23.95;59.82;101881.06;6237777;23;19907;-69
2022/06/18 07:50:54;;;;;;;;;;;;;;;23.94;60.66;101884.72;6236092;23;19931;-68
2022/06/18 07:53:22;;;;;;;;;;;;;;;24.30;59.66;101879.41;6237231;23;19914;-67
2022/06/18 07:55:47;;;;;;;;;;;;;;;24.42;58.76;101883.84;6237142;23;20216;-65
2022/06/18 07:58:12;;;;;;;;;;;;;;;24.30;59.36;101882.97;6238017;23;19907;-69
2022/06/18 08:00:42;;;;;;;;;;;;;;;24.44;59.04;101879.19;6235965;23;20298;-67
2022/06/18 08:03:08;;;;;;;;;;;;;;;24.60;57.91;101880.69;6236934;23;19912;-67
2022/06/18 08:05:33;;;;;;;;;;;;;;;24.70;57.59;101875.44;6236561;23;19914;-68
2022/06/18 08:07:58;;;;;;;;;;;;;;;24.64;58.37;101878.59;6237736;23;19907;-68
2022/06/18 08:10:23;;;;;;;;;;;;;;;24.65;58.70;101874.97;6237189;23;19998;-68
2022/06/18 08:12:49;;;;;;;;;;;;;;;24.77;58.91;101876.66;6236671;23;19908;-68
2022/06/18 08:15:14;;;;;;;;;;;;;;;25.10;57.12;101872.31;6210710;23;19908;-65
2022/06/18 08:17:39;;;;;;;;;;;;;;;25.29;56.14;101870.84;6236617;23;19908;-70
2022/06/18 08:20:05;;;;;;;;;;;;;;;25.24;56.52;101862.25;6237845;23;19908;-67
2022/06/18 08:22:30;;;;;;;;;;;;;;;25.06;54.85;101867.28;6237261;23;19912;-68
2022/06/18 08:24:56;;;;;;;;;;;;;;;24.97;55.90;101864.34;6237533;23;19982;-65
2022/06/18 08:27:21;;;;;;;;;;;;;;;25.29;55.88;101853.78;6237158;23;19911;-70
2022/06/18 08:29:47;;;;;;;;;;;;;;;25.30;56.19;101858.19;6210460;23;19911;-65
2022/06/18 08:32:12;;;;;;;;;;;;;;;25.35;55.90;101859.53;6235210;23;19942;-68
2022/06/18 08:34:37;;;;;;;;;;;;;;;25.43;56.32;101855.38;6210104;23;19950;-65
2022/06/18 08:37:03;;;;;;;;;;;;;;;25.74;53.51;101845.59;6236571;23;19965;-68
2022/06/18 08:39:28;;;;;;;;;;;;;;;25.97;51.85;101853.63;6236377;23;20249;-72
2022/06/18 08:42:06;;;;;;;;;;;;;;;25.84;52.37;101844.84;6237586;23;19914;-67
2022/06/18 08:44:38;;;;;;;;;;;;;;;25.96;52.96;101857.31;6209681;23;19908;-69
2022/06/18 08:47:22;;;;;;;;;;;;;;;26.09;52.41;101850.88;6208794;23;19919;-68
2022/06/18 08:50:02;;;;;;;;;;;;;;;26.33;52.58;101849.78;6236702;23;19994;-65
2022/06/18 08:52:43;;;;;;;;;;;;;;;26.25;52.25;101845.88;6211463;23;20281;-66
2022/06/18 08:55:29;;;;;;;;;;;;;;;26.15;51.28;101839.53;6209078;23;19961;-67
2022/06/18 08:57:56;;;;;;;;;;;;;;;26.26;51.33;101838.63;6210141;23;19949;-68
2022/06/18 09:00:31;;;;;;;;;;;;;;;26.11;49.56;101836.28;6209692;23;20249;-67
2022/06/18 09:03:09;;;;;;;;;;;;;;;26.03;51.74;101835.22;6209918;23;19980;-69
2022/06/18 09:05:53;;;;;;;;;;;;;;;26.56;50.34;101837.00;6209260;23;19908;-68
2022/06/18 09:08:21;;;;;;;;;;;;;;;26.58;50.69;101837.72;6236709;23;19907;-69
2022/06/18 09:10:54;;;;;;;;;;;;;;;26.30;51.46;101836.53;6236743;23;19914;-69
2022/06/18 09:13:39;;;;;;;;;;;;;;;26.34;52.34;101843.41;6235686;23;19908;-68
2022/06/18 09:16:06;;;;;;;;;;;;;;;26.49;51.84;101844.78;6233525;23;19986;-68
2022/06/18 09:18:34;;;;;;;;;;;;;;;26.09;53.00;101851.72;6209109;23;19930;-70
2022/06/18 09:21:00;;;;;;;;;;;;;;;26.20;52.78;101841.84;6236532;23;19907;-70
2022/06/18 09:23:26;;;;;;;;;;;;;;;26.29;52.54;101845.63;6209911;23;19907;-68
2022/06/18 09:25:53;;;;;;;;;;;;;;;26.24;52.20;101846.88;6209375;23;19957;-69
2022/06/18 09:28:28;;;;;;;;;;;;;;;26.06;51.50;101845.72;6236263;23;19907;-70
2022/06/18 09:30:53;;;;;;;;;;;;;;;26.44;49.55;101838.94;6208894;23;19922;-68
2022/06/18 09:33:21;;;;;;;;;;;;;;;26.32;50.44;101839.97;6236268;23;19907;-65
2022/06/18 09:35:53;;;;;;;;;;;;;;;26.49;48.77;101847.47;6209459;23;19986;-69
2022/06/18 09:38:21;;;;;;;;;;;;;;;26.35;47.94;101851.38;6209980;23;20013;-70
2022/06/18 09:40:54;;;;;;;;;;;;;;;26.50;46.35;101842.94;6209856;23;20332;-70
2022/06/18 09:43:36;;;;;;;;;;;;;;;26.68;46.51;101845.03;6210494;23;19915;-71
2022/06/18 09:46:03;;;;;;;;;;;;;;;26.99;45.56;101854.03;6235693;23;19915;-71
2022/06/18 09:48:28;;;;;;;;;;;;;;;26.66;47.72;101850.56;6209711;23;19982;-70
2022/06/18 09:50:54;;;;;;;;;;;;;;;26.34;50.21;101843.41;6234480;23;19935;-68
2022/06/18 09:53:26;;;;;;;;;;;;;;;26.71;48.14;101850.16;6209000;23;19908;-68
2022/06/18 09:56:03;;;;;;;;;;;;;;;26.68;47.65;101847.72;6234926;23;20137;-69
2022/06/18 09:58:30;;;;;;;;;;;;;;;27.13;46.91;101843.81;6236362;23;20244;-70
2022/06/18 10:00:56;;;;;;;;;;;;;;;26.98;48.53;101841.50;6208932;23;19908;-68
2022/06/18 10:08:53;;;;;;;;;;;;;;;27.29;49.01;101828.91;6236617;23;19966;-69
2022/06/18 10:11:19;;;;;;;;;;;;;;;27.14;49.32;101826.59;6235841;23;19984;-70
2022/06/18 10:13:45;;;;;;;;;;;;;;;27.31;49.85;101816.97;6209494;23;19907;-69
2022/06/18 10:16:37;;;;;;;;;;;;;;;27.60;48.26;101826.13;6208914;23;19915;-69
2022/06/18 10:19:06;;;;;;;;;;;;;;;28.00;48.03;101822.41;6230542;23;19919;-67
2022/06/18 10:21:36;;;;;;;;;;;;;;;28.08;47.17;101820.88;6236820;23;19912;-67
2022/06/18 10:24:09;;;;;;;;;;;;;;;27.96;48.25;101818.28;6235668;23;20332;-68
2022/06/18 10:26:41;;;;;;;;;;;;;;;28.05;47.78;101811.16;6208988;23;19907;-67
2022/06/18 10:29:15;;;;;;;;;;;;;;;27.91;48.74;101809.75;6209592;23;19908;-68
2022/06/18 10:31:43;;;;;;;;;;;;;;;27.84;49.93;101803.22;6235449;23;20375;-70
2022/06/18 10:34:28;;;;;;;;;;;;;;;28.18;49.06;101805.47;6209201;23;19907;-69
2022/06/18 10:37:02;;;;;;;;;;;;;;;28.09;48.41;101812.59;6236056;23;19931;-70
2022/06/18 10:39:36;;;;;;;;;;;;;;;28.55;46.93;101805.66;6236227;23;19903;-68
2022/06/18 10:42:17;;;;;;;;;;;;;;;28.67;47.12;101801.75;6235892;23;19941;-68
2022/06/18 10:44:43;;;;;;;;;;;;;;;28.36;48.81;101791.19;6209900;23;20235;-70
2022/06/18 10:47:12;;;;;;;;;;;;;;;28.44;48.92;101798.56;6235842;23;19907;-69
2022/06/18 10:49:37;;;;;;;;;;;;;;;28.41;48.79;101785.31;6209291;23;20316;-69
2022/06/18 10:52:03;;;;;;;;;;;;;;;28.76;48.84;101778.31;6235899;23;19918;-70
2022/06/18 10:54:35;;;;;;;;;;;;;;;29.37;47.51;101788.69;6209511;23;19960;-69
2022/06/18 10:57:00;;;;;;;;;;;;;;;29.54;46.75;101786.13;6208718;23;19915;-68
2022/06/18 10:59:27;;;;;;;;;;;;;;;29.68;47.16;101791.06;6236399;23;19912;-71
2022/06/18 11:01:52;;;;;;;;;;;;;;;29.59;46.29;101792.00;6235061;23;19908;-70
2022/06/18 11:04:25;;;;;;;;;;;;;;;29.56;45.99;101782.31;6236310;23;20292;-69
2022/06/18 11:06:57;;;;;;;;;;;;;;;29.56;46.94;101786.88;6209059;23;19942;-68
2022/06/18 11:09:31;;;;;;;;;;;;;;;29.87;45.91;101794.59;6236299;23;19912;-70
2022/06/18 11:11:58;;;;;;;;;;;;;;;30.05;46.41;101786.41;6211457;23;19911;-68
2022/06/18 11:14:24;;;;;;;;;;;;;;;30.21;44.37;101779.41;6211133;23;20257;-69
2022/06/18 11:16:51;;;;;;;;;;;;;;;30.26;44.09;101783.38;6237029;23;20239;-68
2022/06/18 11:19:26;;;;;;;;;;;;;;;30.36;45.43;101775.09;6211076;23;19915;-69
2022/06/18 11:21:51;;;;;;;;;;;;;;;30.46;44.42;101776.84;6237908;23;19994;-69
2022/06/18 11:24:22;;;;;;;;;;;;;;;30.22;45.77;101771.09;6211176;23;19954;-69
2022/06/18 11:26:51;;;;;;;;;;;;;;;30.50;45.57;101761.91;6237988;23;19914;-68
2022/06/18 11:29:29;;;;;;;;;;;;;;;30.20;44.10;101767.69;6238043;23;19907;-68
2022/06/18 11:31:56;;;;;;;;;;;;;;;30.20;44.43;101773.13;6210544;23;19907;-69
2022/06/18 11:34:22;;;;;;;;;;;;;;;30.61;45.62;101763.50;6211338;23;19918;-70
2022/06/18 11:36:49;;;;;;;;;;;;;;;30.58;45.69;101758.38;6237776;23;19907;-69
2022/06/18 11:39:28;;;;;;;;;;;;;;;30.77;43.42;101768.16;6237329;23;19908;-70
2022/06/18 11:41:55;;;;;;;;;;;;;;;30.49;44.58;101763.75;6210430;23;20279;-68
2022/06/18 11:44:21;;;;;;;;;;;;;;;30.58;44.20;101764.66;6210783;23;19914;-68
2022/06/18 11:46:49;;;;;;;;;;;;;;;30.70;44.23;101757.06;6209853;23;20559;-70
2022/06/18 11:49:33;;;;;;;;;;;;;;;30.67;43.61;101762.81;6210836;23;19907;-70
2022/06/18 11:52:01;;;;;;;;;;;;;;;31.03;42.47;101764.50;6238294;23;19908;-68
2022/06/18 11:54:27;;;;;;;;;;;;;;;31.14;41.09;101757.88;6237337;23;19908;-68
2022/06/18 11:57:02;;;;;;;;;;;;;;;30.16;43.72;101755.44;6238290;23;20335;-71
2022/06/18 11:59:36;;;;;;;;;;;;;;;29.74;44.95;101757.00;6211217;23;19907;-70
2022/06/18 12:02:09;;;;;;;;;;;;;;;30.00;43.46;101757.00;6210107;23;20033;-70
2022/06/18 12:04:46;;;;;;;;;;;;;;;30.54;43.11;101759.69;6210475;23;20337;-70
2022/06/18 12:07:40;;;;;;;;;;;;;;;30.75;43.34;101749.25;6235066;23;19914;-71
2022/06/18 12:10:13;;;;;;;;;;;;;;;30.98;42.30;101751.41;6211071;22;19922;-71
2022/06/18 12:12:44;;;;;;;;;;;;;;;30.39;43.82;101763.03;6237253;22;19939;-70
2022/06/18 12:15:38;;;;;;;;;;;;;;;30.38;44.89;101756.75;6235917;23;19990;-70
2022/06/18 12:18:07;;;;;;;;;;;;;;;30.86;43.13;101755.44;6214880;22;19911;-71
2022/06/18 12:20:36;;;;;;;;;;;;;;;31.08;42.69;101747.66;6235120;23;19914;-69
2022/06/18 12:23:08;;;;;;;;;;;;;;;31.24;42.21;101742.25;6236084;23;19907;-68
2022/06/18 12:25:38;;;;;;;;;;;;;;;31.59;40.94;101746.72;6236344;23;19978;-68
2022/06/18 12:28:10;;;;;;;;;;;;;;;31.36;42.68;101744.69;6237638;22;19923;-69
2022/06/18 12:30:37;;;;;;;;;;;;;;;31.76;42.62;101729.34;6236124;22;19919;-68
2022/06/18 12:33:07;;;;;;;;;;;;;;;31.97;43.29;101728.00;6233975;23;19919;-69
2022/06/18 12:35:33;;;;;;;;;;;;;;;32.61;39.60;101729.00;6235460;23;20002;-68
2022/06/18 12:37:58;;;;;;;;;;;;;;;32.88;38.19;101731.41;6237775;23;19908;-69
2022/06/18 12:40:27;;;;;;;;;;;;;;;32.60;40.37;101716.38;6236851;23;19914;-69
2022/06/18 12:42:53;;;;;;;;;;;;;;;32.86;38.95;101712.50;6236274;23;19911;-70
2022/06/18 12:45:27;;;;;;;;;;;;;;;33.23;39.49;101706.47;6234827;23;19904;-69
2022/06/18 12:48:04;;;;;;;;;;;;;;;32.83;40.48;101706.56;6236769;23;19990;-70
2022/06/18 12:50:30;;;;;;;;;;;;;;;32.88;40.23;101715.91;6235992;23;19907;-70
2022/06/18 12:53:01;;;;;;;;;;;;;;;33.03;40.45;101709.66;6237299;23;20267;-71
2022/06/18 12:55:28;;;;;;;;;;;;;;;33.39;39.86;101714.53;6234801;23;19908;-70